Sandrock, Alabama
Current Conditions -  °F | °C
As of 4:35 AM on Thursday 27 Nov 2014 (Local Time) from K4A9 Reporting Station
Overcast Overcast  
Wind Chill: 37°   Ceiling: 5500
Heat Index: 37°   Visibility: 10mi
Dew Point: 30°   Wind: 3mph
Humidity: 75%   Direction: 250°WSW
Pressure: 30.16"   Gusts: NA
Location:  34.1831°N, 85.7726°W
Report Text: K4A9 271035Z AUTO 25003KT 10SM OVC055 03/M01 A3016 RMK AO2
Loading
Personal Weather Stations






























Interactive Weather Map New forecast layout! Learn more

10-Day Weather Forecast

Advertisements
Track Severe Weather on mobile